X  Zamknij Lotniskowe dane METAR     EDDM Munich Airport
Temperatura
14°C Temperatura
10°C Punkt rosy
77% Wilgotność



Wiatr
4 M/S
8 MPH
13 KM/H
7 KTS



280°
W
Warunki bieżące

Lekkie zachmurzenie Lekkie zachmurzenie
Ciśnienie 1021 (hPa) - 30.15 (inHg)
Widoczność 6 (mil) - 9.7 (km)
Lotnisko
Kod lotniska EDDM

Położenie: Munich Airport
Odległość: 30 (km)

Metar:
EDDM 280850Z AUTO 28007KT 250V330 9999 SCT020 BKN030 14/10 Q1021 NOSIG

Czas: 28-05-2024 10:50 CEST